Pirane, Argentina
Current Conditions -  °F | °C
As of 9:00 AM on Wednesday 22 Oct 2014 (Local Time) from SARF Reporting Station
Clear Clear  
Wind Chill: 81°   Ceiling: Unl
Heat Index: 81°   Visibility: 6mi
Dew Point: 59°   Wind: 10mph
Humidity: 48%   Direction: 50°NE
Pressure: 30"   Gusts: NA
Location:  25.72°S, 59.1°W
Report Text: SARF 221200Z 05009KT CAVOK 27/15 Q1016
Loading
Personal Weather Stations






























Interactive Weather Map New forecast layout! Learn more

10-Day Weather Forecast

Advertisements
Track Severe Weather on mobile